Time;durP1;ratioP1;P1;durP2;ratioP2;P2;SDS_P1;SDS_P2;PMS_P1;PMS_P2;Temp;Humidity;BMP_temperature;BMP_pressure;BME280_temperature;BME280_humidity;BME280_pressure;Samples;Min_cycle;Max_cycle;Signal;HPM_P1;HPM_P2
2023/08/08 00:00:19;;;;;;;0.50;0.50;;;;;;;;;;5110358;28;20038;-78
2023/08/08 00:02:45;;;;;;;1.88;0.82;;;;;;;;;;5110718;28;20517;-78
2023/08/08 00:05:11;;;;;;;0.65;0.65;;;;;;;;;;5111059;28;20097;-77
2023/08/08 00:07:37;;;;;;;1.00;0.80;;;;;;;;;;5110488;28;20043;-77
2023/08/08 00:10:04;;;;;;;1.38;1.00;;;;;;;;;;5110420;28;20116;-77
2023/08/08 00:12:30;;;;;;;0.70;0.60;;;;;;;;;;5110785;28;20485;-78
2023/08/08 00:14:55;;;;;;;1.00;0.80;;;11.80;94.80;;;;;;5110468;28;20107;-77
2023/08/08 00:17:21;;;;;;;0.52;0.50;;;;;;;;;;5110290;28;20024;-77
2023/08/08 00:19:47;;;;;;;0.77;0.70;;;;;;;;;;5110435;28;20039;-78
2023/08/08 00:22:13;;;;;;;1.85;0.90;;;;;;;;;;5105865;28;20584;-78
2023/08/08 00:24:39;;;;;;;3.13;0.70;;;;;;;;;;5099004;28;20068;-78
2023/08/08 00:27:05;;;;;;;1.48;0.80;;;;;;;;;;5109340;28;20106;-77
2023/08/08 00:29:31;;;;;;;3.60;0.60;;;;;;;;;;5091669;28;20128;-77
2023/08/08 00:31:57;;;;;;;1.48;0.50;;;;;;;;;;5109950;28;20024;-78
2023/08/08 00:34:23;;;;;;;0.60;0.60;;;;;;;;;;5109032;28;20038;-77
2023/08/08 00:36:49;;;;;;;1.20;0.90;;;;;;;;;;5110149;28;20489;-77
2023/08/08 00:39:15;;;;;;;2.35;0.68;;;;;;;;;;5109775;28;20032;-77
2023/08/08 00:41:41;;;;;;;1.05;0.65;;;;;;;;;;5111616;27;20026;-78
2023/08/08 00:44:07;;;;;;;0.77;0.77;;;;;;;;;;5100408;28;20063;-78
2023/08/08 00:46:33;;;;;;;1.13;0.90;;;;;;;;;;5109334;28;20012;-77
2023/08/08 00:48:59;;;;;;;0.82;0.60;;;;;;;;;;5109698;28;20027;-77
2023/08/08 00:51:25;;;;;;;0.70;0.70;;;;;;;;;;5109304;28;20024;-78
2023/08/08 00:53:51;;;;;;;0.55;0.55;;;11.60;85.30;;;;;;5109714;28;20402;-77
2023/08/08 00:56:17;;;;;;;0.60;0.60;;;;;;;;;;5110076;28;20031;-77
2023/08/08 00:58:50;;;;;;;0.63;0.63;;;;;;;;;;5110189;28;20031;-77
2023/08/08 01:01:16;;;;;;;0.63;0.60;;;;;;;;;;5109672;28;20026;-77
2023/08/08 01:03:42;;;;;;;0.85;0.70;;;;;;;;;;5097591;28;20028;-77
2023/08/08 01:06:33;;;;;;;0.68;0.60;;;11.50;86.30;;;;;;5108685;28;20092;-77
2023/08/08 01:09:06;;;;;;;1.20;0.70;;;11.40;85.80;;;;;;5109159;28;20088;-78
2023/08/08 01:11:34;;;;;;;0.50;0.50;;;11.50;85.40;;;;;;5100666;28;20070;-77
2023/08/08 01:14:02;;;;;;;0.85;0.65;;;11.40;85.90;;;;;;5106046;28;20053;-78
2023/08/08 01:16:28;;;;;;;1.02;0.73;;;11.10;96.50;;;;;;5109506;28;20447;-78
2023/08/08 01:18:54;;;;;;;0.98;0.57;;;;;;;;;;5109274;28;20023;-77
2023/08/08 01:21:20;;;;;;;2.33;0.50;;;11.20;87.50;;;;;;5116764;27;20027;-77
2023/08/08 01:23:53;;;;;;;0.55;0.55;;;11.10;88.40;;;;;;5126675;27;20374;-78
2023/08/08 01:26:21;;;;;;;1.02;0.70;;;11.00;89.30;;;;;;5112867;27;20524;-77
2023/08/08 01:28:47;;;;;;;0.75;0.75;;;;;;;;;;5109782;27;20024;-77
2023/08/08 01:31:13;;;;;;;0.68;0.68;;;;;;;;;;5119194;27;20108;-77
2023/08/08 01:33:39;;;;;;;1.08;1.02;;;;;;;;;;5109538;28;20051;-78
2023/08/08 01:36:25;;;;;;;0.60;0.60;;;11.00;93.90;;;;;;5109319;28;20032;-77
2023/08/08 01:38:53;;;;;;;0.70;0.63;;;11.30;89.40;;;;;;5116720;27;20047;-78
2023/08/08 01:41:21;;;;;;;1.45;0.70;;;11.20;89.00;;;;;;5109405;28;20020;-77
2023/08/08 01:43:47;;;;;;;1.45;0.93;;;;;;;;;;5108406;28;20050;-77
2023/08/08 01:46:13;;;;;;;3.22;0.82;;;;;;;;;;5109016;28;20027;-77
2023/08/08 01:48:39;;;;;;;0.63;0.63;;;;;;;;;;5120831;27;20495;-77
2023/08/08 01:51:06;;;;;;;0.90;0.90;;;;;;;;;;5096358;28;20036;-77
2023/08/08 01:53:32;;;;;;;1.95;1.13;;;;;;;;;;5105621;28;20064;-77
2023/08/08 01:55:58;;;;;;;0.73;0.70;;;;;;;;;;5120654;27;20027;-77
2023/08/08 01:58:24;;;;;;;0.88;0.60;;;;;;;;;;5108539;28;20075;-77
2023/08/08 02:00:50;;;;;;;1.10;0.60;;;;;;;;;;5108484;28;20779;-77
2023/08/08 02:03:16;;;;;;;0.60;0.60;;;;;;;;;;5109040;28;20112;-77
2023/08/08 02:05:42;;;;;;;0.70;0.70;;;;;;;;;;5108876;28;20027;-77
2023/08/08 02:08:08;;;;;;;0.70;0.70;;;;;;;;;;5108302;28;20026;-77
2023/08/08 02:10:34;;;;;;;0.63;0.63;;;;;;;;;;5108314;28;20024;-77
2023/08/08 02:13:00;;;;;;;0.70;0.70;;;;;;;;;;5109069;28;20062;-78
2023/08/08 02:15:26;;;;;;;0.60;0.60;;;;;;;;;;5108766;28;20057;-78
2023/08/08 02:17:53;;;;;;;0.60;0.60;;;;;;;;;;5108633;28;20533;-77
2023/08/08 02:20:19;;;;;;;0.90;0.90;;;;;;;;;;5108567;28;20023;-77
2023/08/08 02:22:45;;;;;;;0.70;0.70;;;;;;;;;;5108501;28;20375;-78
2023/08/08 02:25:11;;;;;;;2.30;0.60;;;;;;;;;;5108319;28;20035;-77
2023/08/08 02:27:37;;;;;;;0.50;0.50;;;;;;;;;;5108210;28;20012;-77
2023/08/08 02:30:04;;;;;;;0.77;0.57;;;;;;;;;;5119561;28;20048;-77
2023/08/08 02:32:30;;;;;;;0.93;0.77;;;;;;;;;;5108787;28;20043;-77
2023/08/08 02:34:56;;;;;;;0.60;0.60;;;;;;;;;;5107945;28;20047;-78
2023/08/08 02:37:22;;;;;;;0.73;0.60;;;;;;;;;;5108696;28;20052;-77
2023/08/08 02:39:48;;;;;;;1.10;1.10;;;;;;;;;;5108001;28;20051;-77
2023/08/08 02:42:14;;;;;;;1.25;1.15;;;;;;;;;;5108463;28;20393;-77
2023/08/08 02:44:40;;;;;;;0.93;0.80;;;;;;;;;;5107908;28;20046;-77
2023/08/08 02:47:06;;;;;;;0.95;0.93;;;10.50;95.20;;;;;;5108667;28;20031;-78
2023/08/08 02:49:33;;;;;;;0.60;0.60;;;;;;;;;;5107721;28;20023;-76
2023/08/08 02:51:59;;;;;;;1.48;0.75;;;;;;;;;;5108240;28;20024;-77
2023/08/08 02:54:25;;;;;;;0.95;0.85;;;;;;;;;;5107966;28;20031;-77
2023/08/08 02:56:51;;;;;;;0.73;0.73;;;;;;;;;;5100290;28;20027;-77
2023/08/08 02:59:17;;;;;;;1.95;0.90;;;;;;;;;;5111896;28;20024;-77
2023/08/08 03:01:43;;;;;;;0.82;0.80;;;;;;;;;;5112234;28;20367;-78
2023/08/08 03:04:09;;;;;;;0.57;0.57;;;;;;;;;;5111259;28;20659;-77
2023/08/08 03:06:35;;;;;;;1.45;0.88;;;;;;;;;;5111900;28;20100;-77
2023/08/08 03:09:01;;;;;;;0.70;0.70;;;;;;;;;;5111579;28;20027;-76
2023/08/08 03:11:27;;;;;;;0.70;0.70;;;;;;;;;;5111689;28;20031;-77
2023/08/08 03:13:53;;;;;;;1.58;0.98;;;;;;;;;;5104116;28;20036;-77
2023/08/08 03:16:19;;;;;;;1.05;0.90;;;;;;;;;;5103747;28;20015;-77
2023/08/08 03:18:45;;;;;;;1.00;0.90;;;;;;;;;;5111360;28;20123;-77
2023/08/08 03:21:11;;;;;;;1.92;1.10;;;;;;;;;;5111372;28;20083;-77
2023/08/08 03:23:37;;;;;;;0.68;0.68;;;;;;;;;;5111411;28;20027;-77
2023/08/08 03:26:03;;;;;;;1.38;0.70;;;;;;;;;;5111401;28;20034;-77
2023/08/08 03:28:29;;;;;;;0.60;0.60;;;;;;;;;;5113963;27;20542;-77
2023/08/08 03:30:55;;;;;;;2.83;0.57;;;;;;;;;;5114564;27;20048;-77
2023/08/08 03:33:21;;;;;;;0.73;0.68;;;;;;;;;;5108156;28;20024;-77
2023/08/08 03:35:47;;;;;;;2.63;1.10;;;;;;;;;;5111706;28;20049;-77
2023/08/08 03:38:13;;;;;;;1.23;0.77;;;;;;;;;;5111037;28;20114;-77
2023/08/08 03:40:39;;;;;;;1.50;1.10;;;;;;;;;;5109655;27;20031;-77
2023/08/08 03:43:05;;;;;;;1.33;1.23;;;;;;;;;;5113743;27;20027;-78
2023/08/08 03:45:31;;;;;;;2.15;0.85;;;;;;;;;;5111412;28;20059;-77
2023/08/08 03:47:57;;;;;;;1.40;0.88;;;;;;;;;;5110769;28;20028;-77
2023/08/08 03:50:23;;;;;;;0.60;0.60;;;;;;;;;;5111137;28;20077;-77
2023/08/08 03:52:49;;;;;;;4.05;0.80;;;;;;;;;;5110960;28;20444;-77
2023/08/08 03:55:15;;;;;;;1.90;0.70;;;;;;;;;;5111053;28;20111;-77
2023/08/08 03:57:42;;;;;;;2.35;0.80;;;;;;;;;;5110745;28;20572;-77
2023/08/08 04:00:08;;;;;;;3.53;0.88;;;;;;;;;;5111139;28;20031;-77
2023/08/08 04:02:34;;;;;;;0.88;0.77;;;;;;;;;;5110429;28;20027;-77
2023/08/08 04:05:00;;;;;;;3.72;0.88;;;;;;;;;;5110797;28;20524;-77
2023/08/08 04:07:26;;;;;;;1.75;0.90;;;;;;;;;;5110435;28;20023;-77
2023/08/08 04:09:52;;;;;;;1.30;0.88;;;;;;;;;;5110451;28;20035;-77
2023/08/08 04:12:18;;;;;;;0.80;0.80;;;;;;;;;;5110676;28;20107;-77
2023/08/08 04:14:44;;;;;;;2.50;0.80;;;;;;;;;;5111004;28;20547;-77
2023/08/08 04:17:10;;;;;;;1.25;0.90;;;;;;;;;;5110394;28;20020;-77
2023/08/08 04:19:36;;;;;;;1.73;1.63;;;;;;;;;;5110288;28;20777;-77
2023/08/08 04:22:02;;;;;;;1.02;0.93;;;;;;;;;;5110313;28;20027;-77
2023/08/08 04:24:28;;;;;;;0.70;0.70;;;;;;;;;;5110682;28;20089;-77
2023/08/08 04:26:54;;;;;;;1.25;0.90;;;;;;;;;;5109837;28;20016;-77
2023/08/08 04:29:20;;;;;;;0.65;0.65;;;;;;;;;;5118492;27;20062;-78
2023/08/08 04:31:46;;;;;;;0.77;0.77;;;;;;;;;;5112711;27;20030;-78
2023/08/08 04:34:12;;;;;;;1.20;0.90;;;;;;;;;;5110221;28;20015;-77
2023/08/08 04:36:38;;;;;;;0.88;0.88;;;;;;;;;;5105817;28;20050;-77
2023/08/08 04:39:04;;;;;;;1.85;0.95;;;;;;;;;;5098833;28;20036;-77
2023/08/08 04:41:30;;;;;;;0.70;0.70;;;;;;;;;;5107150;28;20022;-77
2023/08/08 04:43:56;;;;;;;0.90;0.77;;;;;;;;;;5110065;28;20527;-78
2023/08/08 04:46:22;;;;;;;0.70;0.70;;;;;;;;;;5109733;28;20059;-77
2023/08/08 04:48:48;;;;;;;0.60;0.60;;;;;;;;;;5110251;28;20072;-77
2023/08/08 04:51:14;;;;;;;8.88;1.15;;;;;;;;;;5109310;28;20020;-77
2023/08/08 04:53:40;;;;;;;1.85;0.95;;;;;;;;;;5109841;28;20089;-76
2023/08/08 04:56:06;;;;;;;0.70;0.70;;;;;;;;;;5109965;28;20058;-77
2023/08/08 04:58:32;;;;;;;0.80;0.80;;;;;;;;;;5108692;28;20065;-77
2023/08/08 05:00:58;;;;;;;0.90;0.90;;;;;;;;;;5109114;28;20447;-77
2023/08/08 05:03:24;;;;;;;1.48;0.80;;;;;;;;;;5091724;28;20032;-77
2023/08/08 05:05:50;;;;;;;0.93;0.65;;;;;;;;;;5109233;28;20585;-77
2023/08/08 05:08:16;;;;;;;2.80;0.95;;;10.10;96.60;;;;;;5109112;28;20011;-77
2023/08/08 05:10:42;;;;;;;2.45;0.80;;;;;;;;;;5103522;28;20031;-76
2023/08/08 05:13:10;;;;;;;1.20;1.10;;;10.10;96.00;;;;;;5103101;28;20012;-77
2023/08/08 05:15:35;;;;;;;;;;;10.20;97.00;;;;;;5109547;28;20394;-77
2023/08/08 05:18:01;;;;;;;1.25;0.70;;;;;;;;;;5108892;28;19903;-77
2023/08/08 05:20:28;;;;;;;0.95;0.85;;;;;;;;;;5106275;28;20058;-77
2023/08/08 05:22:53;;;;;;;0.80;0.80;;;;;;;;;;5108898;27;20020;-78
2023/08/08 05:25:19;;;;;;;1.77;1.08;;;;;;;;;;5109539;28;20047;-78
2023/08/08 05:27:46;;;;;;;2.55;0.85;;;;;;;;;;5108927;28;20016;-77
2023/08/08 05:30:12;;;;;;;2.03;1.10;;;10.60;99.90;;;;;;5120500;27;20470;-77
2023/08/08 05:32:38;;;;;;;1.95;1.00;;;;;;;;;;5109623;28;20149;-77
2023/08/08 05:35:04;;;;;;;0.70;0.70;;;10.70;99.90;;;;;;5107976;27;20079;-77
2023/08/08 05:37:31;;;;;;;1.35;1.20;;;;;;;;;;5099421;28;20035;-77
2023/08/08 05:39:57;;;;;;;1.30;1.23;;;;;;;;;;5109011;28;20024;-77
2023/08/08 05:42:22;;;;;;;3.47;1.05;;;;;;;;;;5115431;27;20087;-77
2023/08/08 05:44:48;;;;;;;1.33;0.98;;;;;;;;;;5108951;28;20394;-77
2023/08/08 05:47:14;;;;;;;0.75;0.75;;;;;;;;;;5109289;28;20016;-77
2023/08/08 05:49:42;;;;;;;3.38;1.08;;;;;;;;;;5107872;28;20054;-77
2023/08/08 05:52:08;;;;;;;1.10;1.00;;;11.80;92.70;;;;;;5108932;28;20028;-77
2023/08/08 05:54:35;;;;;;;0.70;0.70;;;;;;;;;;5108490;28;20038;-77
2023/08/08 05:57:01;;;;;;;1.20;1.10;;;;;;;;;;5108750;28;20514;-77
2023/08/08 05:59:27;;;;;;;2.53;1.05;;;;;;;;;;5109303;28;20119;-77
2023/08/08 06:01:53;;;;;;;1.52;1.02;;;;;;;;;;5109297;28;20153;-77
2023/08/08 06:04:19;;;;;;;2.95;1.00;;;;;;;;;;5104780;28;20498;-77
2023/08/08 06:06:48;;;;;;;1.02;0.90;;;;;;;;;;5108492;28;20023;-78
2023/08/08 06:09:14;;;;;;;1.02;0.88;;;;;;;;;;5102711;28;20062;-77
2023/08/08 06:11:40;;;;;;;1.85;0.80;;;;;;;;;;5087729;28;20475;-78
2023/08/08 06:14:06;;;;;;;0.85;0.85;;;;;;;;;;5103796;28;20026;-77
2023/08/08 06:16:32;;;;;;;1.05;0.60;;;;;;;;;;5106933;28;20028;-77
2023/08/08 06:18:58;;;;;;;0.95;0.70;;;;;;;;;;5107192;28;20081;-77
2023/08/08 06:21:24;;;;;;;1.52;1.42;;;;;;;;;;5107746;28;20077;-77
2023/08/08 06:23:52;;;;;;;1.02;0.93;;;;;;;;;;5094545;28;20094;-77
2023/08/08 06:26:18;;;;;;;0.70;0.70;;;;;;;;;;5107395;28;20397;-78
2023/08/08 06:28:44;;;;;;;1.55;0.82;;;;;;;;;;5111254;28;20020;-79
2023/08/08 06:31:10;;;;;;;0.80;0.80;;;;;;;;;;5116326;28;20136;-77
2023/08/08 06:33:36;;;;;;;0.60;0.60;;;;;;;;;;5098010;28;20024;-79
2023/08/08 06:36:03;;;;;;;0.60;0.60;;;;;;;;;;5112784;28;20093;-80
2023/08/08 06:38:33;;;;;;;0.80;0.80;;;;;;;;;;5111817;28;20027;-80
2023/08/08 06:40:59;;;;;;;0.88;0.60;;;;;;;;;;5111772;28;20047;-80
2023/08/08 06:43:25;;;;;;;0.60;0.60;;;;;;;;;;5112056;28;20024;-80
2023/08/08 06:45:51;;;;;;;1.10;0.75;;;;;;;;;;5112242;28;20062;-79
2023/08/08 06:48:17;;;;;;;3.13;0.90;;;;;;;;;;5111887;28;20024;-79
2023/08/08 06:50:43;;;;;;;0.68;0.68;;;;;;;;;;5111882;28;20036;-80
2023/08/08 06:53:09;;;;;;;1.08;0.80;;;;;;;;;;5111736;28;20504;-80
2023/08/08 06:55:35;;;;;;;0.95;0.82;;;;;;;;;;5111037;28;20055;-80
2023/08/08 06:58:01;;;;;;;0.70;0.70;;;;;;;;;;5112075;28;20434;-80
2023/08/08 07:00:27;;;;;;;0.63;0.60;;;;;;;;;;5111506;28;20016;-80
2023/08/08 07:02:54;;;;;;;2.97;0.80;;;;;;;;;;5111178;28;20094;-80
2023/08/08 07:05:20;;;;;;;1.95;0.70;;;;;;;;;;5111480;28;20036;-80
2023/08/08 07:07:46;;;;;;;1.30;0.43;;;;;;;;;;5089617;28;20031;-80
2023/08/08 07:10:12;;;;;;;0.73;0.30;;;;;;;;;;5093852;27;20024;-80
2023/08/08 07:12:38;;;;;;;0.80;0.50;;;;;;;;;;5097532;27;20032;-82
2023/08/08 07:15:07;;;;;;;0.50;0.30;;;41.00;30.50;;;;;;5107931;27;20024;-80
2023/08/08 07:17:33;;;;;;;5.82;0.95;;;;;;;;;;5109225;27;20025;-81
2023/08/08 07:19:59;;;;;;;0.77;0.30;;;;;;;;;;5113410;27;20035;-79
2023/08/08 07:22:25;;;;;;;;;;;42.80;28.50;;;;;;5111548;27;20106;-81
2023/08/08 07:24:51;;;;;;;;;;;44.30;25.50;;;;;;5110232;27;20051;-81
2023/08/08 07:27:17;;;;;;;0.82;0.30;;;;;;;;;;5115165;27;19915;-81
2023/08/08 07:29:43;;;;;;;0.65;0.20;;;;;;;;;;5114191;27;20079;-80
2023/08/08 07:32:08;;;;;;;1.92;0.17;;;46.70;26.20;;;;;;5111108;27;20027;-81
2023/08/08 07:34:34;;;;;;;0.30;0.20;;;;;;;;;;5114218;27;20032;-82
2023/08/08 07:37:00;;;;;;;;;;;48.20;25.60;;;;;;5098310;27;20546;-80
2023/08/08 07:39:26;;;;;;;1.13;0.20;;;;;;;;;;5080098;28;19965;-86
2023/08/08 07:41:53;;;;;;;0.75;0.30;;;;;;;;;;5111892;27;20110;-85
2023/08/08 07:44:19;;;;;;;1.58;0.40;;;;;;;;;;5100116;27;20037;-86
2023/08/08 07:46:45;;;;;;;0.40;0.30;;;;;;;;;;5103712;27;20035;-85
2023/08/08 07:49:10;;;;;;;;;;;46.30;23.80;;;;;;5109026;27;20397;-85
2023/08/08 07:51:36;;;;;;;0.30;0.10;;;;;;;;;;5103233;27;19907;-85
2023/08/08 07:54:02;;;;;;;;;;;46.70;23.70;;;;;;5111965;27;20076;-85
2023/08/08 07:56:28;;;;;;;2.55;0.40;;;;;;;;;;5103757;27;19908;-85
2023/08/08 07:58:53;;;;;;;;;;;46.80;24.80;;;;;;5119915;27;20035;-84
2023/08/08 08:01:19;;;;;;;0.50;0.10;;;;;;;;;;5100685;27;19957;-84
2023/08/08 08:03:45;;;;;;;0.50;0.20;;;;;;;;;;5103429;27;20028;-86
2023/08/08 08:06:11;;;;;;;;;;;43.80;24.60;;;;;;5098731;27;20047;-85
2023/08/08 08:08:37;;;;;;;1.02;0.20;;;;;;;;;;5117661;27;19903;-84
2023/08/08 08:11:03;;;;;;;0.20;0.10;;;;;;;;;;5106757;27;20045;-86
2023/08/08 08:13:32;;;;;;;0.25;0.15;;;39.40;26.10;;;;;;5107635;27;20099;-85
2023/08/08 08:15:58;;;;;;;0.30;0.17;;;;;;;;;;5102942;27;20023;-85
2023/08/08 08:18:24;;;;;;;0.70;0.13;;;;;;;;;;5093688;28;20032;-81
2023/08/08 08:20:50;;;;;;;0.73;0.20;;;;;;;;;;5086772;28;20088;-80
2023/08/08 08:23:16;;;;;;;0.38;0.10;;;;;;;;;;5104294;27;20024;-80
2023/08/08 08:25:42;;;;;;;;;;;41.60;24.90;;;;;;5103459;27;20039;-81
2023/08/08 08:28:08;;;;;;;2.08;0.40;;;;;;;;;;5112134;27;19926;-79
2023/08/08 08:30:34;;;;;;;0.57;0.30;;;;;;;;;;5116015;27;20082;-83
2023/08/08 08:33:00;;;;;;;0.45;0.22;;;;;;;;;;5113297;27;20039;-82
2023/08/08 08:35:26;;;;;;;;;;;39.40;24.30;;;;;;5099102;27;20039;-82
2023/08/08 08:37:52;;;;;;;0.80;0.40;;;;;;;;;;5102463;27;19908;-82
2023/08/08 08:40:18;;;;;;;1.48;0.40;;;;;;;;;;5108700;27;20160;-81
2023/08/08 08:42:46;;;;;;;0.90;0.40;;;40.40;30.90;;;;;;5096633;28;20028;-82
2023/08/08 08:45:13;;;;;;;0.45;0.28;;;;;;;;;;5110586;27;20462;-82
2023/08/08 08:47:42;;;;;;;0.30;0.30;;;42.20;24.70;;;;;;5114773;27;20016;-81
2023/08/08 08:50:08;;;;;;;1.05;0.40;;;;;;;;;;5119190;27;20019;-82
2023/08/08 08:52:34;;;;;;;1.75;0.35;;;;;;;;;;5095608;27;20560;-81
2023/08/08 08:55:00;;;;;;;1.27;0.25;;;45.20;23.40;;;;;;5102290;27;20035;-82
2023/08/08 08:57:26;;;;;;;;;;;45.20;23.80;;;;;;5109322;27;20031;-83
2023/08/08 08:59:52;;;;;;;0.65;0.30;;;49.20;21.60;;;;;;5102324;27;19910;-85
2023/08/08 09:02:18;;;;;;;0.68;0.30;;;;;;;;;;5116749;27;20132;-83
2023/08/08 09:04:45;;;;;;;1.75;0.30;;;46.10;21.00;;;;;;5110993;27;20035;-84
2023/08/08 09:07:12;;;;;;;0.60;0.20;;;47.70;22.10;;;;;;5103260;27;20047;-84
2023/08/08 09:09:38;;;;;;;0.70;0.28;;;46.30;28.60;;;;;;5110791;27;20024;-83
2023/08/08 09:12:05;;;;;;;0.40;0.30;;;;;;;;;;5103630;27;20111;-82
2023/08/08 09:14:31;;;;;;;0.98;0.30;;;;;;;;;;5107122;27;20034;-84
2023/08/08 09:16:57;;;;;;;0.85;0.30;;;;;;;;;;5109901;27;20023;-82
2023/08/08 09:19:24;;;;;;;1.95;0.28;;;44.90;22.00;;;;;;5103643;27;20028;-87
2023/08/08 09:21:51;;;;;;;1.75;0.17;;;45.20;28.00;;;;;;5114614;27;20043;-84
2023/08/08 09:24:18;;;;;;;0.93;0.30;;;46.60;21.60;;;;;;5108120;27;20081;-83
2023/08/08 09:26:44;;;;;;;0.25;0.10;;;;;;;;;;5102457;27;20028;-88
2023/08/08 09:29:17;;;;;;;1.80;0.82;;;48.80;21.30;;;;;;5087025;28;20409;-82
2023/08/08 09:31:43;;;;;;;0.47;0.30;;;;;;;;;;5110022;27;20114;-82
2023/08/08 09:34:09;;;;;;;0.30;0.20;;;;;;;;;;5103841;27;20062;-82
2023/08/08 09:36:36;;;;;;;0.40;0.20;;;;;;;;;;5106787;27;20560;-83
2023/08/08 09:39:02;;;;;;;0.85;0.32;;;;;;;;;;5107241;27;20107;-83
2023/08/08 09:41:28;;;;;;;0.55;0.20;;;;;;;;;;5109640;27;20024;-84
2023/08/08 09:43:54;;;;;;;0.80;0.17;;;;;;;;;;5105684;27;20035;-83
2023/08/08 09:46:21;;;;;;;0.88;0.35;;;56.20;24.80;;;;;;5110782;27;20052;-91
2023/08/08 09:48:47;;;;;;;0.13;0.13;;;;;;;;;;5099097;27;20046;-87
2023/08/08 09:51:14;;;;;;;0.40;0.30;;;56.80;19.50;;;;;;5114790;27;20039;-87
2023/08/08 09:53:40;;;;;;;0.45;0.30;;;54.40;19.30;;;;;;5116799;27;20026;-87
2023/08/08 09:56:07;;;;;;;0.38;0.10;;;;;;;;;;5107706;27;20110;-87
2023/08/08 09:58:33;;;;;;;0.65;0.30;;;;;;;;;;5099132;28;20091;-85
2023/08/08 10:00:59;;;;;;;0.52;0.20;;;;;;;;;;5122925;27;20019;-84
2023/08/08 10:03:26;;;;;;;0.47;0.20;;;;;;;;;;5113858;27;20488;-85
2023/08/08 10:05:52;;;;;;;1.92;0.20;;;;;;;;;;5110020;27;20035;-84
2023/08/08 10:08:19;;;;;;;0.65;0.22;;;;;;;;;;5115448;27;20026;-85
2023/08/08 10:10:46;;;;;;;1.35;0.20;;;;;;;;;;5114718;27;20087;-85
2023/08/08 10:13:26;;;;;;;0.88;0.50;;;48.50;20.10;;;;;;5097644;28;20067;-83
2023/08/08 10:15:53;;;;;;;0.85;0.25;;;50.20;19.30;;;;;;5103078;27;20505;-84
2023/08/08 10:18:21;;;;;;;1.50;0.50;;;51.20;19.10;;;;;;5115634;27;20063;-85
2023/08/08 10:20:49;;;;;;;0.98;0.32;;;;;;;;;;5110532;28;20031;-84
2023/08/08 10:23:16;;;;;;;2.08;0.30;;;53.50;19.30;;;;;;5116600;28;20024;-85
2023/08/08 10:25:46;;;;;;;0.50;0.20;;;54.10;21.50;;;;;;5116579;28;20091;-85
2023/08/08 10:28:14;;;;;;;0.60;0.30;;;53.70;21.80;;;;;;5100391;28;20027;-81
2023/08/08 10:30:43;;;;;;;1.17;0.30;;;53.40;19.20;;;;;;5096416;28;20052;-81
2023/08/08 10:33:26;;;;;;;1.00;0.20;;;54.30;19.00;;;;;;5112001;28;20135;-83
2023/08/08 10:36:00;;;;;;;0.32;0.17;;;53.40;20.00;;;;;;5103239;28;20060;-84
2023/08/08 10:38:27;;;;;;;1.10;0.30;;;52.70;19.90;;;;;;5108913;28;20036;-84
2023/08/08 10:40:59;;;;;;;0.95;0.22;;;51.90;19.20;;;;;;5101135;28;20048;-85
2023/08/08 10:43:27;;;;;;;0.40;0.30;;;50.70;18.80;;;;;;5120610;28;20255;-83
2023/08/08 10:45:53;;;;;;;0.50;0.17;;;;;;;;;;5117463;28;20054;-84
2023/08/08 10:48:20;;;;;;;1.05;0.30;;;;;;;;;;5111736;28;20471;-84
2023/08/08 10:50:46;;;;;;;1.95;0.38;;;53.10;21.60;;;;;;5112124;28;20027;-84
2023/08/08 10:53:12;;;;;;;0.50;0.20;;;;;;;;;;5096199;28;20628;-84
2023/08/08 10:55:39;;;;;;;0.52;0.20;;;;;;;;;;5115767;28;20062;-84
2023/08/08 10:58:07;;;;;;;0.77;0.30;;;55.20;18.90;;;;;;5115233;28;20026;-84
2023/08/08 11:00:36;;;;;;;0.95;0.30;;;55.60;18.50;;;;;;5115594;28;20050;-83
2023/08/08 11:03:05;;;;;;;0.73;0.73;;;55.50;18.30;;;;;;5123870;28;20557;-85
2023/08/08 11:05:32;;;;;;;0.75;0.20;;;53.50;17.90;;;;;;5091893;28;20039;-85
2023/08/08 11:07:58;;;;;;;0.65;0.20;;;;;;;;;;5109363;28;20020;-84
2023/08/08 11:10:30;;;;;;;1.13;0.40;;;;;;;;;;5097355;28;20028;-84
2023/08/08 11:13:01;;;;;;;0.47;0.10;;;54.00;18.00;;;;;;5105371;28;20019;-84
2023/08/08 11:15:27;;;;;;;0.38;0.30;;;;;;;;;;5105529;28;20042;-84
2023/08/08 11:17:57;;;;;;;0.43;0.20;;;54.20;17.90;;;;;;5107896;27;20019;-85
2023/08/08 11:20:23;;;;;;;0.77;0.20;;;53.50;17.90;;;;;;5105028;28;20153;-84
2023/08/08 11:22:54;;;;;;;0.73;0.30;;;53.60;18.00;;;;;;5101750;27;20024;-83
2023/08/08 11:25:21;;;;;;;0.60;0.25;;;54.00;18.10;;;;;;5107017;27;20039;-85
2023/08/08 11:27:53;;;;;;;0.63;0.22;;;54.40;18.80;;;;;;5120673;27;20397;-86
2023/08/08 11:30:19;;;;;;;1.92;0.20;;;53.70;18.10;;;;;;5116319;27;20040;-85
2023/08/08 11:32:47;;;;;;;1.15;0.30;;;53.70;18.00;;;;;;5121357;27;20027;-85
2023/08/08 11:35:13;;;;;;;1.48;0.20;;;;;;;;;;5107227;27;20040;-84
2023/08/08 11:37:39;;;;;;;0.50;0.20;;;;;;;;;;5106972;27;20038;-85
2023/08/08 11:40:06;;;;;;;1.95;0.25;;;53.90;18.20;;;;;;5107382;27;20024;-87
2023/08/08 11:42:32;;;;;;;1.20;0.50;;;;;;;;;;5114012;27;20562;-83
2023/08/08 11:44:59;;;;;;;0.60;0.30;;;;;;;;;;5119315;27;20043;-84
2023/08/08 11:47:25;;;;;;;0.13;0.10;;;51.70;17.80;;;;;;5115470;27;20030;-84
2023/08/08 11:49:52;;;;;;;0.65;0.30;;;;;;;;;;5117574;27;20035;-83
2023/08/08 11:52:19;;;;;;;0.77;0.10;;;48.60;18.20;;;;;;5106726;27;20039;-83
2023/08/08 11:54:45;;;;;;;0.73;0.20;;;;;;;;;;5113440;27;20154;-83
2023/08/08 11:57:11;;;;;;;;;;;47.10;18.50;;;;;;5116720;27;20123;-83
2023/08/08 11:59:37;;;;;;;1.40;0.45;;;;;;;;;;5121285;27;19923;-83
2023/08/08 12:02:03;;;;;;;0.82;0.22;;;44.80;19.00;;;;;;5121000;27;20027;-83
2023/08/08 12:04:29;;;;;;;0.57;0.32;;;;;;;;;;5096131;27;20051;-84
2023/08/08 12:07:05;;;;;;;1.27;0.20;;;;;;;;;;5097085;28;20047;-85
2023/08/08 12:09:35;;;;;;;2.40;0.57;;;37.90;20.70;;;;;;5114718;27;20023;-85
2023/08/08 12:12:01;;;;;;;0.70;0.40;;;;;;;;;;5116147;27;20126;-84
2023/08/08 12:14:27;;;;;;;1.63;0.35;;;;;;;;;;5100645;27;20019;-83
2023/08/08 12:16:54;;;;;;;1.13;0.30;;;36.20;22.40;;;;;;5104464;27;20031;-84
2023/08/08 12:19:24;;;;;;;0.80;0.40;;;35.80;22.60;;;;;;5106802;27;20039;-85
2023/08/08 12:21:51;;;;;;;0.70;0.30;;;35.30;34.50;;;;;;5117523;27;20038;-81
2023/08/08 12:24:19;;;;;;;1.25;0.20;;;34.00;29.20;;;;;;5110582;27;20073;-89
2023/08/08 12:26:45;;;;;;;0.70;0.40;;;;;;;;;;5088585;28;20038;-83
2023/08/08 12:29:12;;;;;;;0.73;0.30;;;;;;;;;;5124332;27;20011;-85
2023/08/08 12:31:38;;;;;;;2.47;0.97;;;;;;;;;;5106792;27;20276;-84
2023/08/08 12:34:04;;;;;;;1.67;0.50;;;;;;;;;;5106057;27;20342;-83
2023/08/08 12:36:30;;;;;;;0.98;0.20;;;;;;;;;;5104572;27;20316;-83
2023/08/08 12:38:56;;;;;;;0.60;0.43;;;;;;;;;;5111380;27;20025;-85
2023/08/08 12:41:24;;;;;;;1.17;0.50;;;;;;;;;;5113115;27;20042;-83
2023/08/08 12:43:50;;;;;;;2.38;0.40;;;30.80;39.90;;;;;;5109894;27;20015;-83
2023/08/08 12:46:16;;;;;;;1.53;0.47;;;30.60;39.90;;;;;;5107389;27;20413;-82
2023/08/08 12:48:43;;;;;;;1.23;0.50;;;;;;;;;;5107322;27;20036;-83
2023/08/08 12:51:09;;;;;;;2.80;0.30;;;;;;;;;;5117933;27;20066;-83
2023/08/08 12:53:36;;;;;;;2.90;0.60;;;;;;;;;;5102512;27;20489;-83
2023/08/08 12:56:02;;;;;;;0.55;0.10;;;;;;;;;;5105184;27;20074;-83
2023/08/08 12:58:27;;;;;;;1.37;0.33;;;30.30;34.20;;;;;;5113574;27;21508;-85
2023/08/08 13:00:54;;;;;;;0.63;0.35;;;;;;;;;;5117857;27;20028;-86
2023/08/08 13:03:20;;;;;;;1.00;0.57;;;;;;;;;;5121508;27;20579;-86
2023/08/08 13:05:46;;;;;;;0.70;0.32;;;;;;;;;;5103561;27;20040;-86
2023/08/08 13:08:13;;;;;;;0.43;0.28;;;;;;;;;;5126809;27;20133;-84
2023/08/08 13:10:39;;;;;;;1.33;0.65;;;;;;;;;;5117520;27;20019;-90
2023/08/08 13:13:05;;;;;;;1.20;0.47;;;;;;;;;;5130563;27;20099;-91
2023/08/08 13:15:32;;;;;;;0.75;0.20;;;;;;;;;;5102717;27;20042;-86
2023/08/08 13:17:58;;;;;;;0.83;0.33;;;;;;;;;;5113524;27;20027;-84
2023/08/08 13:20:25;;;;;;;0.20;0.17;;;27.80;29.10;;;;;;5102808;27;20408;-82
2023/08/08 13:22:51;;;;;;;0.52;0.50;;;;;;;;;;5120706;27;20019;-83
2023/08/08 13:25:21;;;;;;;1.85;0.70;;;;;;;;;;5101605;27;20506;-91
2023/08/08 13:27:47;;;;;;;1.23;0.35;;;;;;;;;;5117828;27;20024;-84
2023/08/08 13:30:15;;;;;;;2.00;0.47;;;28.00;34.20;;;;;;5101698;28;20056;-91
2023/08/08 13:32:41;;;;;;;0.43;0.30;;;;;;;;;;5110732;27;20042;-94
2023/08/08 13:35:07;;;;;;;0.52;0.35;;;28.00;44.20;;;;;;5102201;27;20055;-90
2023/08/08 13:37:34;;;;;;;1.92;0.47;;;;;;;;;;5118401;27;20506;-89
2023/08/08 13:40:00;;;;;;;0.95;0.50;;;;;;;;;;5098060;27;20096;-84
2023/08/08 13:42:26;;;;;;;0.73;0.45;;;;;;;;;;5116288;27;20054;-83
2023/08/08 13:44:52;;;;;;;0.20;0.20;;;;;;;;;;5108173;27;20439;-83
2023/08/08 13:47:18;;;;;;;0.35;0.30;;;;;;;;;;5105112;27;20023;-84
2023/08/08 13:49:44;;;;;;;0.60;0.38;;;27.50;44.30;;;;;;5106921;27;20028;-85
2023/08/08 13:52:10;;;;;;;0.28;0.20;;;;;;;;;;5114471;27;20557;-84
2023/08/08 13:54:36;;;;;;;1.75;0.50;;;;;;;;;;5113030;27;20020;-85
2023/08/08 13:57:02;;;;;;;3.70;0.70;;;;;;;;;;5105164;27;20023;-86
2023/08/08 13:59:28;;;;;;;1.13;0.63;;;;;;;;;;5118390;27;20012;-84
2023/08/08 14:01:54;;;;;;;1.17;0.50;;;;;;;;;;5108644;27;20030;-85
2023/08/08 14:04:20;;;;;;;3.47;0.50;;;;;;;;;;5110676;27;20031;-89
2023/08/08 14:06:46;;;;;;;3.75;0.50;;;;;;;;;;5107206;27;20679;-84
2023/08/08 14:09:12;;;;;;;1.02;0.30;;;;;;;;;;5098940;28;20072;-85